Hershey, NE (69143)

5:08 PM CDT on September 02, 2015 (GMT -0500)
Hershey Northeast | | Change Station
CLOSE
Current Station
Personal Weather Station
Location: North Platte, NE
Elevation: 2867 ft
Nearby Weather Stations

Elev 2867 ft 41.21 °N, 100.93 °W | Updated 3 minutes ago

Clear
Clear
97.4 °F
Feels Like 99 °F
N
1.0
Wind Variable Wind from ESE
Gusts 3.0 mph

Today
High -- | Low -- °F
--% Chance of Precip.
Yesterday
High -- | Low -- °F
Precip. -- in
7:11 AM 8:15 PM
Waning Gibbous, 77% visible
Pressure 29.75 in
Visibility 10.0 miles
Clouds Clear
Heat Index 99 °F
Dew Point 62 °F
Humidity 31%
Rainfall 0.00 in
Snow Depth Not available.
UV 5 out of 12
Pollen 10.50 out of 12
Air Quality Not available.
Flu Activity Not available.
METAR KLBF 022153Z AUTO 13006KT 10SM CLR 35/13 A2984 RMK AO2 SLP073 T03500128
Pressure 29.75 in
Visibility 10.0 miles
Clouds Clear
Heat Index 99 °F
Dew Point 62 °F
Humidity 31%
Rainfall 0.00 in
Snow Depth Not available.
UV 5 out of 12
Pollen 10.50 out of 12
Air Quality Not available.
Flu Activity Not available.
METAR KLBF 022153Z AUTO 13006KT 10SM CLR 35/13 A2984 RMK AO2 SLP073 T03500128

10-Day Weather Forecast

×

Almanac

Astronomy

Sep. 02, 2015 Rise Set
Actual Time
Civil Twilight
Nautical Twilight
Astronomical Twilight
Moon
Length of Visible Light
Length of Day
Tomorrow will be .
, % of the Moon is Illuminated

Today's Extremes

State Highs State Lows

Community

WunderPhotos

Upload Photos

1,851,821 photos uploaded!

WunderBlogs® & News

Nearby

Air Quality

  Air Quality AQ Index Pollutant
Not available.

Snow Depth

Station Depth Elevation

Earthquake Activity

City Distance Mag. Time & Date
Minimum magnitude displayed is 2.5.

Coastal Water Temperatures

Place Temperature

Stations

Nearby Weather Stations

Station Location Temp. Windchill Dew Point Humidity Wind Precip. Elev Updated Type